Etusivu
Sääsatelliitin kuvat 15 päivän ennusteIlmastoSykloni Salama LentoasemaUKK Newsletter Tietoja
Sää : Eurooppa Afrikka Pohjois-Amerikka Etelä-Amerikka Aasia Australia-Oseania Muut
Kielillä Yhteystiedot

Kittilä, Suomi

Leveyspiiri: 67-42N, Pituuspiiri: 024-51E, korkeus: 196 m


METAR: EFKT 160450Z AUTO 26003KT CAVOK M03/M08 Q1016
short-TAF: EFKT 160227Z 1603/1612 22004KT CAVOK TEMPO 1607/1612 20012G22KT
long-TAF: vanhentunut (20593 tuntia)

Aika: 08:23 (05:23 UTC)

Tämänhetkinen sää

Tämä raportti tehtiin 33 minuuttia sitten, kello 04:50 UTC  
Tuuli 03 kt alkaen länsi
Lämpötila -3°C
Kosteus 68%
Ilmanpaine 1016 hPa
Näkyvyys 10 km tai enemmän
ei ollut pilviä alle 1500m eikä cumulonimbus pilviä

Mittayksikkö

Sääennuste

Tämä raportti tehtiin 2 tuntia ja 41 minuuttia sitten, kello 02:42 UTC  
Ennuste voimassa 16 klo 03 UTC - 16 klo 12 UTC
Tuuli 04 kt alkaen lounas
Näkyvyys 10 km tai enemmän
ei ollut pilviä alle 1500m eikä cumulonimbus pilviä
Ajoittain
  16 klo 07 UTC - 16 klo 12 UTC
Tuuli 12 kt alkaen etelä/lounas puskittain aina 22 kt
Tällä sivustolla oleviin tietoihin liittyy vastuuvapauslauseke
Sää : Eurooppa Afrikka Pohjois-Amerikka Etelä-Amerikka Aasia Australia-Oseania Muut
Sääsatelliitin kuvat 15 päivän ennusteIlmastoSykloni Salama LentoasemaUKK Kielillä Yhteystiedot Newsletter Tietoja